MSC Annamaria — H3HN — position and weather

sailwx.info

Track history (hours):
 
Tides and Currents Weather Stations Pressure Air Temp Water Temp Dewpoint Dewpoint Depression Visibility Wind Speed Wind Dir Waves Ship Positions

MSC Annamaria

Last reported at 2015-May-03 14:31 UTC. Time now 2015-May-06 03:24 UTC.
Position N 33°33' E 034°22'.

Length 188 m; draft 9.5 m.

Type: Ship (hazmat cat B). MMSI: 353852000.

Date/timePositionNaut miles runAvg speedWind from/ knotsBaromVisibWave heightAir tempDewpointWater temp
2015-May-03 14:31N 33°33' E 034°22'1412.7
2015-May-03 13:27N 33°27' E 034°07'1212.6
2015-May-03 12:32N 33°22' E 033°55'2712.8
2015-May-03 10:26N 33°09' E 033°26'15212.6
2015-May-02 22:22N 32°00' E 030°46'  
2015-Apr-30 04:17N 33°25' E 031°52'1112.3
2015-Apr-30 03:25N 33°33' E 032°01'1112.1
2015-Apr-30 02:33N 33°40' E 032°09'1412.1
2015-Apr-30 01:26N 33°51' E 032°20'1112.3
2015-Apr-30 00:33N 33°59' E 032°29'1312.7
2015-Apr-29 23:33N 34°08' E 032°39'1312.9
2015-Apr-29 22:33N 34°18' E 032°50'1212.4
2015-Apr-29 21:33N 34°27' E 032°60'1111.3
2015-Apr-29 20:33N 34°38' E 033°04'3 2.3
2015-Apr-29 19:27N 34°39' E 033°01'0 0.0
2015-Apr-29 18:33N 34°39' E 033°01'0 0.0
2015-Apr-29 17:25N 34°39' E 033°01'0 0.0
2015-Apr-29 16:32N 34°39' E 033°01'0 0.0
2015-Apr-29 15:28N 34°39' E 033°01'0 0.0
2015-Apr-29 14:08N 34°39' E 033°01'0 0.0
2015-Apr-29 13:31N 34°39' E 033°01'0 0.1
2015-Apr-29 12:34N 34°39' E 033°01'6 6.2
2015-Apr-29 11:33N 34°33' E 033°04'1313.1
2015-Apr-29 10:33N 34°33' E 032°48'23913.8
2015-Apr-28 17:15N 35°40' E 028°08'1114.1
2015-Apr-28 16:30N 35°43' E 027°55'1314.0
2015-Apr-28 15:33N 35°48' E 027°40'1514.2
2015-Apr-28 14:29N 35°56' E 027°24'1313.6
2015-Apr-28 13:33N 36°01' E 027°09'1414.0
2015-Apr-28 12:33N 36°04' E 026°52'1413.7
2015-Apr-28 11:33N 36°06' E 026°36'1312.8
2015-Apr-28 10:31N 36°09' E 026°20'1312.9
2015-Apr-28 09:32N 36°08' E 026°04'1313.3
2015-Apr-28 08:33N 36°09' E 025°48'1413.5
2015-Apr-28 07:33N 36°09' E 025°31'1313.3
2015-Apr-28 06:33N 36°09' E 025°15'1313.2
2015-Apr-28 05:33N 36°15' E 025°00'1413.6
2015-Apr-28 04:33N 36°21' E 024°45'1513.8
2015-Apr-28 03:27N 36°28' E 024°29'1314.1
2015-Apr-28 02:33N 36°35' E 024°15'1514.4
2015-Apr-28 01:30N 36°47' E 024°05'1314.0
2015-Apr-28 00:33N 37°00' E 024°02'1414.0
2015-Apr-27 23:34N 37°13' E 023°55'1514.4
2015-Apr-27 22:33N 37°27' E 023°49'1414.3
2015-Apr-27 21:33N 37°40' E 023°42'1413.7
2015-Apr-27 20:33N 37°53' E 023°36'4 3.7
2015-Apr-27 19:20N 37°57' E 023°35'0 0.0
2015-Apr-27 18:30N 37°57' E 023°35'0 0.0
2015-Apr-27 17:28N 37°57' E 023°35'0 0.0
2015-Apr-27 16:30N 37°57' E 023°35'0 0.0
2015-Apr-27 15:27N 37°57' E 023°35'0 0.0
2015-Apr-27 14:30N 37°57' E 023°35'0 0.0
2015-Apr-27 13:26N 37°57' E 023°35'0 0.0
2015-Apr-27 12:31N 37°57' E 023°35'0 0.0
2015-Apr-27 11:26N 37°57' E 023°35'0 0.0
2015-Apr-27 10:32N 37°57' E 023°35'0 0.0
2015-Apr-27 09:31N 37°57' E 023°35'0 0.0
2015-Apr-27 08:33N 37°57' E 023°35'0 0.0
2015-Apr-27 07:31N 37°57' E 023°35'0 0.0
2015-Apr-27 06:32N 37°57' E 023°35'0 0.0
2015-Apr-27 05:34N 37°57' E 023°35'0 0.0
2015-Apr-27 04:28N 37°57' E 023°35'0 0.0
2015-Apr-27 03:33N 37°57' E 023°35'0 0.0
2015-Apr-27 02:33N 37°57' E 023°35'0 0.0
2015-Apr-27 01:31N 37°57' E 023°35'0 0.0
2015-Apr-27 00:32N 37°57' E 023°35'0 0.0
2015-Apr-26 23:24N 37°57' E 023°35'0 0.0
2015-Apr-26 22:32N 37°57' E 023°35'0 0.0
2015-Apr-26 21:29N 37°57' E 023°35'0 0.0
2015-Apr-26 20:31N 37°57' E 023°35'0 0.0
2015-Apr-26 19:34N 37°57' E 023°35'0 0.0
2015-Apr-26 18:32N 37°57' E 023°35'0 0.0
2015-Apr-26 17:32N 37°57' E 023°35'0 0.0
2015-Apr-26 16:32N 37°57' E 023°35'0 0.1
2015-Apr-26 15:33N 37°57' E 023°35'8 7.5
2015-Apr-26 14:33N 37°51' E 023°40'1212.4
2015-Apr-26 13:33N 37°40' E 023°48'1312.7
2015-Apr-26 12:32N 37°35' E 024°03'1412.9
2015-Apr-26 11:27N 37°43' E 024°17'4511.1
2015-Apr-26 07:24N 38°28' E 024°29'75 2.6
2015-Apr-25 03:08N 39°39' E 024°01'712.6
2015-Apr-25 02:33N 39°36' E 024°09'4212.8
2015-Apr-24 23:14N 39°17' E 024°59'  
Track history (hours):
 
Tides and Currents Weather Stations Pressure Air Temp Water Temp Dewpoint Dewpoint Depression Visibility Wind Speed Wind Dir Waves Ship Positions

MSC Annamaria

Last reported at 2015-May-03 14:31 UTC. Time now 2015-May-06 03:24 UTC.
Position N 33°33' E 034°22'.

Length 188 m; draft 9.5 m.

Type: Ship (hazmat cat B). MMSI: 353852000.

Date/timePositionNaut miles runAvg speedWind from/ knotsBaromVisibWave heightAir tempDewpointWater temp
2015-May-03 14:31N 33°33' E 034°22'1412.7
2015-May-03 13:27N 33°27' E 034°07'1212.6
2015-May-03 12:32N 33°22' E 033°55'2712.8
2015-May-03 10:26N 33°09' E 033°26'15212.6
2015-May-02 22:22N 32°00' E 030°46'  
2015-Apr-30 04:17N 33°25' E 031°52'1112.3
2015-Apr-30 03:25N 33°33' E 032°01'1112.1
2015-Apr-30 02:33N 33°40' E 032°09'1412.1
2015-Apr-30 01:26N 33°51' E 032°20'1112.3
2015-Apr-30 00:33N 33°59' E 032°29'1312.7
2015-Apr-29 23:33N 34°08' E 032°39'1312.9
2015-Apr-29 22:33N 34°18' E 032°50'1212.4
2015-Apr-29 21:33N 34°27' E 032°60'1111.3
2015-Apr-29 20:33N 34°38' E 033°04'3 2.3
2015-Apr-29 19:27N 34°39' E 033°01'0 0.0
2015-Apr-29 18:33N 34°39' E 033°01'0 0.0
2015-Apr-29 17:25N 34°39' E 033°01'0 0.0
2015-Apr-29 16:32N 34°39' E 033°01'0 0.0
2015-Apr-29 15:28N 34°39' E 033°01'0 0.0
2015-Apr-29 14:08N 34°39' E 033°01'0 0.0
2015-Apr-29 13:31N 34°39' E 033°01'0 0.1
2015-Apr-29 12:34N 34°39' E 033°01'6 6.2
2015-Apr-29 11:33N 34°33' E 033°04'1313.1
2015-Apr-29 10:33N 34°33' E 032°48'23913.8
2015-Apr-28 17:15N 35°40' E 028°08'1114.1
2015-Apr-28 16:30N 35°43' E 027°55'1314.0
2015-Apr-28 15:33N 35°48' E 027°40'1514.2
2015-Apr-28 14:29N 35°56' E 027°24'1313.6
2015-Apr-28 13:33N 36°01' E 027°09'1414.0
2015-Apr-28 12:33N 36°04' E 026°52'1413.7
2015-Apr-28 11:33N 36°06' E 026°36'1312.8
2015-Apr-28 10:31N 36°09' E 026°20'1312.9
2015-Apr-28 09:32N 36°08' E 026°04'1313.3
2015-Apr-28 08:33N 36°09' E 025°48'1413.5
2015-Apr-28 07:33N 36°09' E 025°31'1313.3
2015-Apr-28 06:33N 36°09' E 025°15'1313.2
2015-Apr-28 05:33N 36°15' E 025°00'1413.6
2015-Apr-28 04:33N 36°21' E 024°45'1513.8
2015-Apr-28 03:27N 36°28' E 024°29'1314.1
2015-Apr-28 02:33N 36°35' E 024°15'1514.4
2015-Apr-28 01:30N 36°47' E 024°05'1314.0
2015-Apr-28 00:33N 37°00' E 024°02'1414.0
2015-Apr-27 23:34N 37°13' E 023°55'1514.4
2015-Apr-27 22:33N 37°27' E 023°49'1414.3
2015-Apr-27 21:33N 37°40' E 023°42'1413.7
2015-Apr-27 20:33N 37°53' E 023°36'4 3.7
2015-Apr-27 19:20N 37°57' E 023°35'0 0.0
2015-Apr-27 18:30N 37°57' E 023°35'0 0.0
2015-Apr-27 17:28N 37°57' E 023°35'0 0.0
2015-Apr-27 16:30N 37°57' E 023°35'0 0.0
2015-Apr-27 15:27N 37°57' E 023°35'0 0.0
2015-Apr-27 14:30N 37°57' E 023°35'0 0.0
2015-Apr-27 13:26N 37°57' E 023°35'0 0.0
2015-Apr-27 12:31N 37°57' E 023°35'0 0.0
2015-Apr-27 11:26N 37°57' E 023°35'0 0.0
2015-Apr-27 10:32N 37°57' E 023°35'0 0.0
2015-Apr-27 09:31N 37°57' E 023°35'0 0.0
2015-Apr-27 08:33N 37°57' E 023°35'0 0.0
2015-Apr-27 07:31N 37°57' E 023°35'0 0.0
2015-Apr-27 06:32N 37°57' E 023°35'0 0.0
2015-Apr-27 05:34N 37°57' E 023°35'0 0.0
2015-Apr-27 04:28N 37°57' E 023°35'0 0.0
2015-Apr-27 03:33N 37°57' E 023°35'0 0.0
2015-Apr-27 02:33N 37°57' E 023°35'0 0.0
2015-Apr-27 01:31N 37°57' E 023°35'0 0.0
2015-Apr-27 00:32N 37°57' E 023°35'0 0.0
2015-Apr-26 23:24N 37°57' E 023°35'0 0.0
2015-Apr-26 22:32N 37°57' E 023°35'0 0.0
2015-Apr-26 21:29N 37°57' E 023°35'0 0.0
2015-Apr-26 20:31N 37°57' E 023°35'0 0.0
2015-Apr-26 19:34N 37°57' E 023°35'0 0.0
2015-Apr-26 18:32N 37°57' E 023°35'0 0.0
2015-Apr-26 17:32N 37°57' E 023°35'0 0.0
2015-Apr-26 16:32N 37°57' E 023°35'0 0.1
2015-Apr-26 15:33N 37°57' E 023°35'8 7.5
2015-Apr-26 14:33N 37°51' E 023°40'1212.4
2015-Apr-26 13:33N 37°40' E 023°48'1312.7
2015-Apr-26 12:32N 37°35' E 024°03'1412.9
2015-Apr-26 11:27N 37°43' E 024°17'4511.1
2015-Apr-26 07:24N 38°28' E 024°29'75 2.6
2015-Apr-25 03:08N 39°39' E 024°01'712.6
2015-Apr-25 02:33N 39°36' E 024°09'4212.8
2015-Apr-24 23:14N 39°17' E 024°59'  

Dump ship's entire track history